Latest Weather Observations for Ngayawili (Elcho Island)

IDD60801

Issued at 12:01 am CST Tuesday 23 December 2014 (issued every 30 minutes, with the page automatically refreshed every 10 minutes)

About weather observations | Map of weather stations | Latest weather observations for NT | Other Formats
Station Details ID: 014517 Name: NGAYAWILI Lat: -12.00 Lon: 135.57 Height: 8.1 m
Data from the previous 72 hours. | See also: Recent months at Ngayawili (Elcho Island)
Date/Time
CST
Temp
°C
App
Temp
°C
Dew
Point
Rel
Hum
%
Delta-T
°C
Wind Press
QNH
hPa
Press
MSL
hPa
Rain
since 9 am
mm
Dir
 
Spd
km/h
Gust
km/h
Spd
kts
Gust
kts
23/12:00am 28.3 - - - - ENE 7 11 4 6 - - 0.0
 
Date/Time
CST
Temp
°C
App
Temp
°C
Dew
Point
Rel
Hum
%
Delta-T
°C
Wind Press
QNH
hPa
Press
MSL
hPa
Rain
since 9 am
mm
Dir
 
Spd
km/h
Gust
km/h
Spd
kts
Gust
kts
22/11:30pm 28.5 - - - - ENE 7 11 4 6 - - 0.0
22/11:00pm 28.8 - - - - ENE 9 13 5 7 - - 0.0
22/10:30pm 28.7 - - - - E 9 13 5 7 - - 0.0
22/10:00pm 28.8 - - - - E 6 9 3 5 - - 0.0
22/09:30pm 29.1 - - - - E 7 11 4 6 - - 0.0
22/09:00pm 29.4 - - - - E 9 13 5 7 - - 0.0
22/08:30pm 29.6 - - - - NE 7 7 4 4 - - 0.0
22/08:00pm 30.0 - - - - NE 9 11 5 6 - - 0.0
22/07:30pm 30.2 - - - - NE 9 11 5 6 - - 0.0
22/07:00pm 30.7 - - - - NNE 13 20 7 11 - - 0.0
22/06:30pm 31.2 - - - - NNE 19 24 10 13 - - 0.0
22/06:00pm 31.8 - - - - N 20 24 11 13 - - 0.0
22/05:30pm 32.3 - - - - N 20 24 11 13 - - 0.0
22/05:00pm 32.1 - - - - N 20 26 11 14 - - 0.0
22/04:30pm 32.2 - - - - N 22 26 12 14 - - 0.0
22/04:00pm 33.5 - - - - N 24 30 13 16 - - 0.0
22/03:30pm 33.5 - - - - N 24 30 13 16 - - 0.0
22/03:00pm 34.0 - - - - N 22 26 12 14 - - 0.0
22/02:30pm 32.9 - - - - N 22 26 12 14 - - 0.0
22/02:00pm 33.4 - - - - N 24 28 13 15 - - 0.0
22/01:30pm 33.2 - - - - N 20 26 11 14 - - 0.0
22/01:00pm 33.1 - - - - N 17 20 9 11 - - 0.0
22/12:30pm 32.1 - - - - N 20 24 11 13 - - 0.0
22/12:00pm 32.7 - - - - NW 15 17 8 9 - - 0.0
22/11:30am 32.6 - - - - NNW 13 17 7 9 - - 0.0
22/11:00am 31.5 - - - - WNW 13 17 7 9 - - 0.0
22/10:30am 31.9 - - - - WNW 11 15 6 8 - - 0.0
22/10:00am 31.1 - - - - WNW 11 13 6 7 - - 0.0
22/09:30am 31.5 - - - - SE 9 11 5 6 - - 0.0
22/09:00am 31.2 - - - - SE 9 11 5 6 - - 0.0
22/08:30am 31.7 - - - - SE 7 9 4 5 - - 0.0
22/08:00am 31.3 - - - - SE 7 9 4 5 - - 0.0
22/07:30am 30.3 - - - - E 7 9 4 5 - - 0.0
22/07:00am 28.5 - - - - E 7 9 4 5 - - 0.0
22/06:30am 26.3 - - - - E 9 11 5 6 - - 0.0
22/06:00am 25.8 - - - - NE 7 7 4 4 - - 0.0
22/05:30am 26.1 - - - - NE 9 11 5 6 - - 0.0
22/05:00am 26.8 - - - - NE 9 11 5 6 - - 0.0
22/04:30am 27.5 - - - - NE 11 15 6 8 - - 0.0
22/04:00am 27.2 - - - - NE 11 13 6 7 - - 0.0
22/03:30am 27.3 - - - - NE 9 13 5 7 - - 0.0
22/03:00am 27.4 - - - - NE 11 13 6 7 - - 0.0
22/02:30am 26.6 - - - - ENE 9 11 5 6 - - 0.0
22/02:00am 26.6 - - - - ENE 9 11 5 6 - - 0.0
22/01:30am 26.7 - - - - ENE 7 9 4 5 - - 0.0
22/01:00am 27.5 - - - - ENE 9 11 5 6 - - 0.0
22/12:30am 27.6 - - - - ENE 9 11 5 6 - - 0.0
22/12:00am 27.4 - - - - NE 7 9 4 5 - - 0.0
 
Date/Time
CST
Temp
°C
App
Temp
°C
Dew
Point
Rel
Hum
%
Delta-T
°C
Wind Press
QNH
hPa
Press
MSL
hPa
Rain
since 9 am
mm
Dir
 
Spd
km/h
Gust
km/h
Spd
kts
Gust
kts
21/11:30pm 26.9 - - - - NE 7 9 4 5 - - 0.0
21/11:00pm 27.1 - - - - NE 7 9 4 5 - - 0.0
21/10:30pm 28.0 - - - - NE 7 11 4 6 - - 0.0
21/10:00pm 28.4 - - - - NE 9 13 5 7 - - 0.0
21/09:30pm 28.5 - - - - NE 11 11 6 6 - - 0.0
21/09:00pm 28.9 - - - - NNE 7 9 4 5 - - 0.0
21/08:30pm 29.3 - - - - N 9 13 5 7 - - 0.0
21/08:00pm 29.8 - - - - NNE 11 15 6 8 - - 0.0
21/07:30pm 30.5 - - - - N 15 20 8 11 - - 0.0
21/07:00pm 30.7 - - - - N 19 22 10 12 - - 0.0
21/06:30pm 30.9 - - - - N 19 20 10 11 - - 0.0
21/06:00pm 31.5 - - - - N 20 24 11 13 - - 0.0
21/05:30pm 31.8 - - - - N 17 19 9 10 - - 0.0
21/05:00pm 32.1 - - - - NNW 15 17 8 9 - - 0.0
21/04:30pm 32.5 - - - - NNW 15 19 8 10 - - 0.0
21/04:00pm 32.9 - - - - NNW 15 17 8 9 - - 0.0
21/03:30pm 33.1 - - - - NNW 15 20 8 11 - - 0.0
21/03:00pm 33.2 - - - - NNW 17 19 9 10 - - 0.0
21/02:30pm 33.7 - - - - NNW 17 19 9 10 - - 0.0
21/02:00pm 33.5 - - - - NW 15 19 8 10 - - 0.0
21/01:30pm 33.1 - - - - NW 17 20 9 11 - - 0.0
21/01:00pm 33.2 - - - - NW 17 20 9 11 - - 0.0
21/12:30pm 33.3 - - - - NW 17 20 9 11 - - 0.0
21/12:00pm 33.5 - - - - NNW 15 19 8 10 - - 0.0
21/11:30am 33.2 - - - - NW 15 17 8 9 - - 0.0
21/11:00am 32.3 - - - - NW 11 15 6 8 - - 0.0
21/10:30am 32.8 - - - - NW 13 17 7 9 - - 0.0
21/10:00am 32.4 - - - - NW 13 17 7 9 - - 0.0
21/09:30am 32.3 - - - - NW 13 17 7 9 - - 0.0
21/09:00am 31.5 - - - - NW 13 17 7 9 - - 0.0
21/08:30am 31.3 - - - - NW 13 15 7 8 - - 0.0
21/08:00am 30.8 - - - - NW 13 17 7 9 - - 0.0
21/07:30am 30.7 - - - - NNW 15 17 8 9 - - 0.0
21/07:00am 30.3 - - - - NNW 11 15 6 8 - - 0.0
21/06:30am 29.9 - - - - NNW 15 17 8 9 - - 0.0
21/06:00am 29.9 - - - - NNW 15 19 8 10 - - 0.0
21/05:30am 29.7 - - - - N 15 17 8 9 - - 0.0
21/05:00am 29.8 - - - - N 17 20 9 11 - - 0.0
21/04:30am 29.7 - - - - N 19 22 10 12 - - 0.0
21/04:00am 28.5 - - - - N 9 13 5 7 - - 0.0
21/03:30am 29.7 - - - - N 15 17 8 9 - - 0.0
21/03:00am 29.8 - - - - N 17 20 9 11 - - 0.0
21/02:30am 29.7 - - - - N 15 19 8 10 - - 0.0
21/02:00am 29.7 - - - - N 15 19 8 10 - - 0.0
21/01:30am 29.8 - - - - N 17 20 9 11 - - 0.0
21/01:00am 29.9 - - - - N 15 20 8 11 - - 0.0
21/12:30am 30.0 - - - - N 17 20 9 11 - - 0.0
21/12:00am 30.1 - - - - N 15 20 8 11 - - 0.0
 
Date/Time
CST
Temp
°C
App
Temp
°C
Dew
Point
Rel
Hum
%
Delta-T
°C
Wind Press
QNH
hPa
Press
MSL
hPa
Rain
since 9 am
mm
Dir
 
Spd
km/h
Gust
km/h
Spd
kts
Gust
kts
20/11:30pm 30.0 - - - - N 15 20 8 11 - - 0.0
20/11:00pm 30.2 - - - - N 15 19 8 10 - - 0.0
20/10:30pm 30.2 - - - - N 19 20 10 11 - - 0.0
20/10:00pm 30.3 - - - - N 19 22 10 12 - - 0.0
20/09:30pm 30.3 - - - - N 17 20 9 11 - - 0.0
20/09:00pm 30.4 - - - - N 17 20 9 11 - - 0.0
20/08:30pm 30.3 - - - - N 13 17 7 9 - - 0.0
20/08:00pm 30.3 - - - - N 13 17 7 9 - - 0.0
20/07:30pm 30.6 - - - - N 17 20 9 11 - - 0.0
20/07:00pm 30.6 - - - - N 17 20 9 11 - - 0.0
20/06:30pm 30.9 - - - - N 17 20 9 11 - - 0.0
20/06:00pm 31.1 - - - - N 17 20 9 11 - - 0.0
20/05:30pm 31.3 - - - - N 15 20 8 11 - - 0.0
20/05:00pm 31.8 - - - - N 17 20 9 11 - - 0.0
20/04:30pm 31.9 - - - - NNW 19 20 10 11 - - 0.0
20/04:00pm 32.6 - - - - NNW 22 26 12 14 - - 0.0
20/03:30pm 33.5 - - - - NNW 24 28 13 15 - - 0.0
20/03:00pm 34.0 - - - - NNW 24 28 13 15 - - 0.0
20/02:30pm 33.6 - - - - NW 20 24 11 13 - - 0.0
20/02:00pm 33.8 - - - - NW 19 20 10 11 - - 0.0
20/01:30pm 33.4 - - - - NW 17 20 9 11 - - 0.0
20/01:00pm 33.3 - - - - NW 17 20 9 11 - - 0.0
20/12:30pm 33.5 - - - - WNW 17 20 9 11 - - 0.0
20/12:00pm 33.4 - - - - WNW 15 19 8 10 - - 0.0
20/11:30am 33.5 - - - - W 15 19 8 10 - - 0.0
20/11:00am 33.2 - - - - W 15 20 8 11 - - 0.0
20/10:30am 33.1 - - - - W 15 17 8 9 - - 0.0
20/10:00am 33.0 - - - - W 13 17 7 9 - - 0.0
20/09:30am 32.3 - - - - W 11 17 6 9 - - 0.0
20/09:00am 32.0 - - - - W 11 15 6 8 - - 0.0
20/08:30am 31.8 - - - - NW 13 15 7 8 - - 0.0
20/08:00am 31.4 - - - - NW 11 15 6 8 - - 0.0
20/07:30am 30.7 - - - - WNW 13 19 7 10 - - 0.0
20/07:00am 30.5 - - - - NW 13 17 7 9 - - 0.0
20/06:30am 30.0 - - - - NW 13 17 7 9 - - 0.0
20/06:00am 29.8 - - - - NW 11 15 6 8 - - 0.0
20/05:30am 29.8 - - - - NNW 19 20 10 11 - - 0.0
20/05:00am 29.7 - - - - N 19 24 10 13 - - 0.0
20/04:30am 29.9 - - - - N 20 24 11 13 - - 0.0
20/04:00am 29.9 - - - - NNW 17 20 9 11 - - 0.0
20/03:30am 29.9 - - - - N 15 19 8 10 - - 0.0
20/03:00am 30.0 - - - - N 15 19 8 10 - - 0.0
20/02:30am 29.9 - - - - N 17 20 9 11 - - 0.0
20/02:00am 29.9 - - - - N 17 22 9 12 - - 0.0
20/01:30am 29.9 - - - - N 17 20 9 11 - - 0.0
20/01:00am 29.8 - - - - N 19 22 10 12 - - 0.0
20/12:30am 29.9 - - - - N 17 20 9 11 - - 0.0

Other Formats:

Comma delimited format used in spreadsheet applications
http://www.bom.gov.au/fwo/IDD60801/IDD60801.95146.axf

JavaScript Object Notation format (JSON) in row-major order
http://www.bom.gov.au/fwo/IDD60801/IDD60801.95146.json